createdAt,value
2016-08-19T00:00:11.466Z,13.81
2016-08-19T00:01:12.416Z,13.87
2016-08-19T00:02:11.460Z,13.86
2016-08-19T00:03:12.886Z,13.78
2016-08-19T00:04:11.548Z,13.75
2016-08-19T00:05:11.781Z,13.68
2016-08-19T00:06:11.639Z,13.63
2016-08-19T00:07:11.539Z,13.57
2016-08-19T00:08:11.674Z,13.62
2016-08-19T00:09:11.569Z,13.55
2016-08-19T00:10:12.934Z,13.55
2016-08-19T00:11:11.745Z,13.53
2016-08-19T00:12:11.719Z,13.5
2016-08-19T00:13:11.800Z,13.53
2016-08-19T00:14:11.755Z,13.47
2016-08-19T00:15:11.507Z,13.35
2016-08-19T00:16:12.069Z,13.42
2016-08-19T00:17:11.589Z,13.48
2016-08-19T00:18:12.675Z,13.37
2016-08-19T00:19:12.319Z,13.35
2016-08-19T00:20:11.771Z,13.28
2016-08-19T00:21:12.272Z,13.28
2016-08-19T00:22:12.515Z,13.31
2016-08-19T00:23:11.624Z,13.29
2016-08-19T00:24:11.877Z,13.24
2016-08-19T00:25:12.457Z,13.13
2016-08-19T00:26:11.615Z,13.14
2016-08-19T00:27:11.996Z,13.13
2016-08-19T00:28:11.680Z,13.09
2016-08-19T00:29:11.705Z,13.09
2016-08-19T00:30:14.648Z,13.13
2016-08-19T00:31:11.859Z,13.21
2016-08-19T00:32:11.630Z,13.13
2016-08-19T00:33:11.877Z,13.27
2016-08-19T00:34:11.868Z,13.28
2016-08-19T00:35:11.857Z,13.24
2016-08-19T00:36:13.366Z,13.27
2016-08-19T00:37:11.835Z,13.24
2016-08-19T00:38:11.818Z,13.29
2016-08-19T00:39:11.736Z,13.17
2016-08-19T00:40:11.995Z,13.24
2016-08-19T00:41:12.628Z,13.19
2016-08-19T00:42:11.661Z,13.19
2016-08-19T00:43:11.882Z,13.17
2016-08-19T00:44:12.508Z,13.36
2016-08-19T00:45:11.748Z,13.19
2016-08-19T00:46:12.047Z,13.29
2016-08-19T00:47:11.940Z,13.25
2016-08-19T00:48:11.906Z,13.25
2016-08-19T00:49:11.800Z,13.2
2016-08-19T00:50:12.447Z,13.13
2016-08-19T00:51:11.791Z,13.16
2016-08-19T00:52:12.632Z,13.13
2016-08-19T00:53:12.521Z,13.07
2016-08-19T00:54:11.746Z,13.07
2016-08-19T00:55:11.976Z,13.11
2016-08-19T00:56:12.092Z,13.13
2016-08-19T00:57:11.750Z,13.11
2016-08-19T00:58:12.860Z,13.07
2016-08-19T00:59:12.176Z,13.09
2016-08-19T01:00:11.839Z,13.06
2016-08-19T01:01:12.019Z,12.99
2016-08-19T01:02:11.746Z,12.99
2016-08-19T01:03:11.954Z,12.91
2016-08-19T01:04:12.078Z,12.88
2016-08-19T01:05:11.802Z,12.96
2016-08-19T01:06:12.160Z,12.96
2016-08-19T01:07:11.806Z,13.02
2016-08-19T01:08:12.079Z,13.01
2016-08-19T01:09:13.657Z,12.92
2016-08-19T01:10:11.782Z,12.95
2016-08-19T01:11:12.124Z,12.96
2016-08-19T01:12:11.901Z,12.96
2016-08-19T01:13:11.950Z,12.92
2016-08-19T01:14:11.837Z,12.98
2016-08-19T01:15:12.075Z,12.81
2016-08-19T01:16:11.906Z,12.81
2016-08-19T01:17:11.752Z,12.74
2016-08-19T01:18:11.976Z,12.77
2016-08-19T01:19:12.038Z,12.69
2016-08-19T01:20:11.783Z,12.8
2016-08-19T01:21:12.023Z,12.74
2016-08-19T01:22:12.237Z,12.83
2016-08-19T01:23:12.525Z,12.77
2016-08-19T01:24:11.888Z,12.63
2016-08-19T01:25:12.210Z,12.7
2016-08-19T01:26:11.920Z,12.62
2016-08-19T01:27:12.271Z,12.61
2016-08-19T01:28:12.076Z,12.62
2016-08-19T01:29:12.574Z,12.62
2016-08-19T01:30:11.939Z,12.63
2016-08-19T01:31:11.927Z,12.77
2016-08-19T01:32:12.007Z,12.8
2016-08-19T01:33:12.027Z,12.65
2016-08-19T01:34:14.195Z,12.69
2016-08-19T01:35:12.023Z,12.65
2016-08-19T01:36:12.051Z,12.73
2016-08-19T01:37:12.123Z,12.63
2016-08-19T01:38:12.192Z,12.69
2016-08-19T01:39:12.992Z,12.65
2016-08-19T01:40:12.238Z,12.62
2016-08-19T01:41:12.114Z,12.59
2016-08-19T01:42:12.149Z,12.61
2016-08-19T01:43:12.114Z,12.53
2016-08-19T01:44:11.903Z,12.47
2016-08-19T01:45:12.202Z,12.56
2016-08-19T01:46:12.800Z,12.63
2016-08-19T01:47:11.910Z,12.63
2016-08-19T01:48:12.119Z,12.77
2016-08-19T01:49:12.067Z,12.59
2016-08-19T01:50:13.820Z,12.62
2016-08-19T01:51:12.238Z,12.65
2016-08-19T01:52:12.011Z,12.61
2016-08-19T01:53:12.147Z,12.74
2016-08-19T01:54:12.159Z,12.77
2016-08-19T01:55:12.246Z,12.83
2016-08-19T01:56:13.136Z,12.83
2016-08-19T01:57:12.155Z,12.74
2016-08-19T01:58:12.171Z,12.69
2016-08-19T01:59:12.927Z,12.63
2016-08-19T02:00:12.063Z,12.58
2016-08-19T02:01:12.631Z,12.61
2016-08-19T02:02:12.069Z,12.53
2016-08-19T02:03:12.847Z,12.56
2016-08-19T02:04:12.227Z,12.52
2016-08-19T02:05:12.182Z,12.52
2016-08-19T02:06:12.142Z,12.48
2016-08-19T02:07:12.169Z,12.4
2016-08-19T02:08:12.433Z,12.38
2016-08-19T02:09:12.120Z,12.41
2016-08-19T02:10:11.914Z,12.36
2016-08-19T02:11:12.160Z,12.16
2016-08-19T02:12:12.083Z,12.38
2016-08-19T02:13:12.308Z,12.4
2016-08-19T02:14:11.942Z,12.38
2016-08-19T02:15:12.322Z,12.36
2016-08-19T02:16:12.299Z,12.34
2016-08-19T02:17:12.039Z,12.4
2016-08-19T02:18:12.171Z,12.26
2016-08-19T02:19:12.392Z,12.28
2016-08-19T02:20:12.047Z,12.34
2016-08-19T02:21:12.279Z,12.38
2016-08-19T02:22:12.195Z,12.34
2016-08-19T02:23:12.556Z,12.4
2016-08-19T02:24:13.044Z,12.22
2016-08-19T02:25:12.960Z,12.19
2016-08-19T02:26:11.947Z,12.28
2016-08-19T02:27:12.358Z,12.19
2016-08-19T02:28:12.386Z,12.19
2016-08-19T02:29:12.073Z,12.19
2016-08-19T02:30:12.245Z,12.19
2016-08-19T02:31:12.344Z,12.19
2016-08-19T02:32:12.377Z,12.07
2016-08-19T02:33:13.538Z,12.18
2016-08-19T02:34:11.958Z,12.07
2016-08-19T02:35:12.259Z,12.04
2016-08-19T02:36:12.865Z,12.1
2016-08-19T02:37:13.776Z,11.97
2016-08-19T02:38:13.944Z,11.94
2016-08-19T02:39:12.313Z,11.86
2016-08-19T02:40:12.317Z,11.79
2016-08-19T02:41:12.072Z,11.78
2016-08-19T02:42:12.384Z,11.79
2016-08-19T02:43:12.091Z,11.78
2016-08-19T02:44:12.209Z,11.84
2016-08-19T02:45:12.217Z,11.86
2016-08-19T02:46:12.207Z,11.86
2016-08-19T02:47:12.269Z,11.89
2016-08-19T02:48:12.817Z,11.95
2016-08-19T02:49:12.284Z,11.89
2016-08-19T02:50:12.398Z,11.85
2016-08-19T02:51:13.185Z,11.82
2016-08-19T02:52:12.245Z,11.79
2016-08-19T02:53:12.246Z,11.7
2016-08-19T02:54:12.873Z,11.71
2016-08-19T02:55:12.215Z,11.75
2016-08-19T02:56:12.211Z,11.68
2016-08-19T02:57:12.486Z,11.82
2016-08-19T02:58:12.992Z,11.86
2016-08-19T02:59:12.331Z,11.79
2016-08-19T03:00:12.342Z,11.78
2016-08-19T03:01:12.143Z,11.75
2016-08-19T03:02:12.543Z,11.84
2016-08-19T03:03:13.024Z,11.89
2016-08-19T03:04:12.215Z,11.88
2016-08-19T03:05:12.333Z,11.75
2016-08-19T03:06:12.455Z,11.76
2016-08-19T03:07:12.146Z,11.71
2016-08-19T03:08:12.291Z,11.68
2016-08-19T03:09:12.252Z,11.67
2016-08-19T03:10:12.079Z,11.68
2016-08-19T03:11:12.425Z,11.68
2016-08-19T03:12:12.358Z,11.71
2016-08-19T03:13:12.814Z,11.81
2016-08-19T03:14:12.327Z,11.76
2016-08-19T03:15:12.308Z,11.82
2016-08-19T03:16:12.972Z,11.78
2016-08-19T03:17:13.419Z,11.64
2016-08-19T03:18:13.053Z,11.68
2016-08-19T03:19:12.228Z,11.71
2016-08-19T03:20:12.943Z,11.73
2016-08-19T03:21:12.282Z,11.61
2016-08-19T03:22:12.142Z,11.64
2016-08-19T03:23:12.223Z,11.68
2016-08-19T03:24:12.280Z,11.57
2016-08-19T03:25:12.136Z,11.56
2016-08-19T03:26:12.425Z,11.53
2016-08-19T03:27:12.309Z,11.48
2016-08-19T03:28:12.942Z,11.68
2016-08-19T03:29:12.471Z,11.7
2016-08-19T03:30:12.445Z,11.7
2016-08-19T03:31:12.518Z,11.63
2016-08-19T03:32:12.399Z,11.64
2016-08-19T03:33:12.916Z,11.53
2016-08-19T03:34:12.163Z,11.52
2016-08-19T03:35:12.349Z,11.45
2016-08-19T03:36:12.302Z,11.6
2016-08-19T03:37:12.894Z,11.63
2016-08-19T03:38:12.470Z,11.66
2016-08-19T03:39:12.437Z,11.64
2016-08-19T03:40:12.384Z,11.63
2016-08-19T03:41:12.453Z,11.64
2016-08-19T03:42:12.517Z,11.61
2016-08-19T03:43:12.153Z,11.6
2016-08-19T03:44:12.403Z,11.52
2016-08-19T03:45:12.545Z,11.61
2016-08-19T03:46:12.998Z,11.53
2016-08-19T03:47:12.479Z,11.52
2016-08-19T03:48:12.160Z,11.56
2016-08-19T03:49:13.523Z,11.46
2016-08-19T03:50:12.999Z,11.46
2016-08-19T03:51:12.869Z,11.45
2016-08-19T03:52:12.480Z,11.45
2016-08-19T03:53:13.586Z,11.43
2016-08-19T03:54:12.204Z,11.34
2016-08-19T03:55:12.566Z,11.52
2016-08-19T03:56:12.535Z,11.48
2016-08-19T03:57:12.603Z,11.39
2016-08-19T03:58:13.190Z,11.38
2016-08-19T03:59:12.199Z,11.34
2016-08-19T04:00:12.491Z,11.18
2016-08-19T04:01:12.456Z,11.21
2016-08-19T04:02:12.580Z,11.2
2016-08-19T04:03:13.205Z,11.21
2016-08-19T04:04:12.363Z,11.35
2016-08-19T04:05:14.043Z,11.35
2016-08-19T04:06:12.491Z,11.26
2016-08-19T04:07:12.403Z,11.18
2016-08-19T04:08:12.881Z,11.1
2016-08-19T04:09:12.536Z,11.15
2016-08-19T04:10:12.506Z,11.12
2016-08-19T04:11:12.607Z,11.18
2016-08-19T04:12:12.469Z,11.16
2016-08-19T04:13:13.044Z,11.26
2016-08-19T04:14:12.443Z,11.31
2016-08-19T04:15:12.564Z,11.16
2016-08-19T04:16:12.386Z,11.24
2016-08-19T04:17:12.518Z,11.23
2016-08-19T04:18:12.296Z,11.21
2016-08-19T04:19:12.638Z,11.13
2016-08-19T04:20:12.384Z,11.2
2016-08-19T04:21:13.844Z,11.1
2016-08-19T04:22:12.526Z,11.18
2016-08-19T04:23:12.597Z,11.09
2016-08-19T04:24:12.616Z,10.97
2016-08-19T04:25:12.477Z,11.02
2016-08-19T04:26:12.663Z,11.02
2016-08-19T04:27:12.644Z,11.02
2016-08-19T04:28:12.649Z,10.91
2016-08-19T04:29:12.278Z,10.94
2016-08-19T04:30:12.480Z,10.94
2016-08-19T04:31:12.339Z,10.91
2016-08-19T04:32:13.408Z,10.83
2016-08-19T04:33:13.098Z,10.84
2016-08-19T04:34:13.188Z,10.87
2016-08-19T04:35:12.650Z,10.79
2016-08-19T04:36:12.599Z,10.73
2016-08-19T04:37:12.450Z,10.69
2016-08-19T04:38:12.556Z,10.7
2016-08-19T04:39:12.447Z,10.7
2016-08-19T04:40:12.329Z,10.61
2016-08-19T04:41:12.397Z,10.75
2016-08-19T04:42:12.331Z,10.75
2016-08-19T04:43:12.338Z,10.88
2016-08-19T04:44:12.248Z,11.05
2016-08-19T04:45:12.319Z,11.06
2016-08-19T04:46:12.484Z,11.1
2016-08-19T04:47:12.258Z,11.02
2016-08-19T04:48:12.333Z,10.97
2016-08-19T04:49:12.321Z,11.06
2016-08-19T04:50:12.409Z,11.09
2016-08-19T04:51:12.265Z,11.03
2016-08-19T04:52:12.380Z,11.1
2016-08-19T04:53:12.592Z,11.15
2016-08-19T04:54:12.432Z,11.26
2016-08-19T04:55:12.281Z,11.21
2016-08-19T04:56:12.368Z,11.16
2016-08-19T04:57:12.361Z,11.26
2016-08-19T04:58:12.376Z,11.08
2016-08-19T04:59:12.298Z,11.24
2016-08-19T05:00:12.485Z,11.15
2016-08-19T05:01:12.299Z,11.1
2016-08-19T05:02:12.425Z,11.21
2016-08-19T05:03:12.389Z,11.2
2016-08-19T05:04:12.546Z,11.18
2016-08-19T05:05:12.390Z,11.23
2016-08-19T05:06:12.397Z,11.15
2016-08-19T05:07:12.395Z,11.34
2016-08-19T05:08:12.476Z,11.38
2016-08-19T05:09:12.398Z,11.42
2016-08-19T05:10:12.328Z,11.42
2016-08-19T05:11:12.528Z,11.48
2016-08-19T05:12:12.328Z,11.46
2016-08-19T05:13:12.481Z,11.56
2016-08-19T05:14:12.345Z,11.6
2016-08-19T05:15:12.494Z,11.56
2016-08-19T05:16:12.351Z,11.66
2016-08-19T05:17:12.384Z,11.66
2016-08-19T05:18:12.530Z,11.66
2016-08-19T05:19:12.362Z,11.79
2016-08-19T05:20:12.415Z,11.84
2016-08-19T05:21:12.445Z,11.91
2016-08-19T05:22:12.429Z,11.91
2016-08-19T05:23:12.504Z,11.95
2016-08-19T05:24:12.376Z,12.04
2016-08-19T05:25:12.514Z,12.05
2016-08-19T05:26:12.436Z,12.13
2016-08-19T05:27:12.381Z,12.13
2016-08-19T05:28:12.471Z,12.1
2016-08-19T05:29:12.403Z,12.19
2016-08-19T05:30:12.551Z,12.22
2016-08-19T05:31:12.402Z,12.33
2016-08-19T05:32:12.387Z,12.33
2016-08-19T05:33:12.467Z,12.47
2016-08-19T05:34:12.482Z,12.43
2016-08-19T05:35:12.501Z,12.62
2016-08-19T05:36:12.465Z,12.66
2016-08-19T05:37:12.560Z,12.65
2016-08-19T05:38:12.414Z,12.81
2016-08-19T05:39:12.775Z,12.78
2016-08-19T05:40:12.508Z,12.91
2016-08-19T05:41:12.520Z,12.95
2016-08-19T05:42:12.507Z,13.03
2016-08-19T05:43:13.427Z,13.07
2016-08-19T05:44:12.498Z,13.25
2016-08-19T05:45:12.432Z,13.36
2016-08-19T05:46:12.448Z,13.25
2016-08-19T05:47:12.460Z,13.55
2016-08-19T05:48:12.552Z,13.58
2016-08-19T05:49:12.449Z,13.69
2016-08-19T05:50:12.541Z,13.87
2016-08-19T05:51:12.522Z,14.15
2016-08-19T05:52:12.545Z,14.36
2016-08-19T05:53:12.628Z,14.57
2016-08-19T05:54:12.531Z,14.71
2016-08-19T05:55:12.620Z,15.02
2016-08-19T05:56:12.579Z,15.27
2016-08-19T05:57:12.462Z,15.43
2016-08-19T05:58:12.462Z,15.59
2016-08-19T05:59:12.573Z,15.95
2016-08-19T06:00:12.622Z,16.14
2016-08-19T06:01:12.548Z,16.47
2016-08-19T06:02:12.555Z,16.55
2016-08-19T06:03:12.602Z,16.65
2016-08-19T06:04:12.654Z,16.84
2016-08-19T06:05:12.595Z,17.13
2016-08-19T06:06:13.288Z,17.43
2016-08-19T06:07:12.566Z,17.62
2016-08-19T06:08:12.513Z,17.65
2016-08-19T06:09:12.489Z,17.65
2016-08-19T06:10:12.639Z,17.55
2016-08-19T06:11:12.652Z,17.76
2016-08-19T06:12:12.572Z,17.92
2016-08-19T06:13:12.581Z,18.05
2016-08-19T06:14:12.659Z,18.08
2016-08-19T06:15:12.732Z,18.13
2016-08-19T06:16:12.533Z,18.24
2016-08-19T06:17:12.590Z,18.44
2016-08-19T06:18:12.608Z,18.65
2016-08-19T06:19:12.668Z,18.82
2016-08-19T06:20:12.674Z,18.65
2016-08-19T06:21:12.525Z,18.29
2016-08-19T06:22:13.117Z,18.08
2016-08-19T06:23:12.530Z,18.1
2016-08-19T06:24:12.637Z,18.24
2016-08-19T06:25:12.541Z,18.39
2016-08-19T06:26:12.548Z,18.56
2016-08-19T06:27:12.718Z,18.66
2016-08-19T06:28:12.552Z,18.45
2016-08-19T06:29:12.790Z,18.57
2016-08-19T06:30:12.552Z,18.72
2016-08-19T06:31:12.663Z,18.71
2016-08-19T06:32:12.648Z,18.6
2016-08-19T06:33:12.717Z,18.87
2016-08-19T06:34:12.600Z,19.1
2016-08-19T06:35:12.637Z,18.84
2016-08-19T06:36:12.746Z,19.02
2016-08-19T06:37:12.576Z,19.25
2016-08-19T06:38:13.776Z,19.47
2016-08-19T06:39:12.731Z,19.64
2016-08-19T06:40:12.577Z,19.52
2016-08-19T06:41:12.665Z,19.35
2016-08-19T06:42:12.681Z,19.12
2016-08-19T06:43:12.608Z,18.97
2016-08-19T06:44:12.687Z,19.09
2016-08-19T06:45:12.610Z,19.16
2016-08-19T06:46:12.603Z,19.09
2016-08-19T06:47:12.682Z,19.38
2016-08-19T06:48:12.688Z,19.72
2016-08-19T06:49:12.781Z,20.11
2016-08-19T06:50:12.765Z,20.18
2016-08-19T06:51:12.620Z,20.41
2016-08-19T06:52:12.773Z,20.48
2016-08-19T06:53:12.698Z,20.53
2016-08-19T06:54:13.361Z,20.72
2016-08-19T06:55:12.707Z,19.93
2016-08-19T06:56:12.709Z,19.24
2016-08-19T06:57:12.745Z,19.31
2016-08-19T06:58:12.717Z,19.53
2016-08-19T06:59:12.633Z,19.9
2016-08-19T07:00:12.737Z,20.32
2016-08-19T07:01:13.465Z,20.4
2016-08-19T07:02:12.668Z,20.38
2016-08-19T07:03:12.931Z,20.41
2016-08-19T07:04:12.811Z,20.85
2016-08-19T07:05:12.685Z,21.01
2016-08-19T07:06:12.755Z,20.79
2016-08-19T07:07:12.771Z,20.86
2016-08-19T07:08:12.810Z,20.82
2016-08-19T07:09:12.740Z,20.54
2016-08-19T07:10:13.400Z,20.67
2016-08-19T07:11:12.669Z,21.01
2016-08-19T07:12:12.675Z,21.21
2016-08-19T07:13:12.751Z,21.25
2016-08-19T07:14:12.765Z,21.01
2016-08-19T07:15:12.766Z,20.58
2016-08-19T07:16:12.765Z,20.53
2016-08-19T07:17:12.781Z,20.75
2016-08-19T07:18:12.916Z,21.25
2016-08-19T07:19:12.768Z,21.36
2016-08-19T07:20:12.874Z,21.7
2016-08-19T07:21:13.517Z,21.85
2016-08-19T07:22:12.702Z,21.94
2016-08-19T07:23:12.799Z,21.9
2016-08-19T07:24:12.792Z,21.21
2016-08-19T07:25:12.893Z,21.38
2016-08-19T07:26:13.924Z,21.7
2016-08-19T07:27:12.905Z,22
2016-08-19T07:28:12.880Z,22.42
2016-08-19T07:29:12.721Z,22.73
2016-08-19T07:30:12.729Z,22.91
2016-08-19T07:31:12.764Z,23.22
2016-08-19T07:32:12.842Z,23.34
2016-08-19T07:33:12.940Z,23.21
2016-08-19T07:34:12.881Z,23.37
2016-08-19T07:35:12.887Z,23.41
2016-08-19T07:36:12.768Z,23.32
2016-08-19T07:37:12.847Z,23.37
2016-08-19T07:38:12.892Z,23.45
2016-08-19T07:39:12.773Z,23.52
2016-08-19T07:40:12.852Z,23.41
2016-08-19T07:41:12.770Z,23.44
2016-08-19T07:42:13.858Z,23.26
2016-08-19T07:43:12.839Z,22.86
2016-08-19T07:44:12.935Z,22.64
2016-08-19T07:45:12.944Z,22.85
2016-08-19T07:46:12.934Z,22.73
2016-08-19T07:47:12.927Z,22.85
2016-08-19T07:48:13.004Z,22.88
2016-08-19T07:49:12.958Z,23.1
2016-08-19T07:50:13.085Z,22.88
2016-08-19T07:51:12.959Z,22.45
2016-08-19T07:52:13.030Z,21.68
2016-08-19T07:53:13.036Z,21.12
2016-08-19T07:54:12.892Z,21.37
2016-08-19T07:55:12.932Z,21.16
2016-08-19T07:56:12.906Z,21.06
2016-08-19T07:57:13.001Z,21.27
2016-08-19T07:58:13.494Z,21.56
2016-08-19T07:59:12.856Z,21.58
2016-08-19T08:00:12.985Z,21.62
2016-08-19T08:01:12.882Z,21.89
2016-08-19T08:02:12.840Z,21.83
2016-08-19T08:03:12.932Z,21.82
2016-08-19T08:04:12.912Z,22.02
2016-08-19T08:05:12.828Z,22.33
2016-08-19T08:06:12.843Z,22.69
2016-08-19T08:07:12.928Z,23.1
2016-08-19T08:08:12.925Z,23.55
2016-08-19T08:09:12.944Z,23.63
2016-08-19T08:10:12.852Z,23.25
2016-08-19T08:11:12.943Z,22.34
2016-08-19T08:12:13.014Z,22
2016-08-19T08:13:12.956Z,22.16
2016-08-19T08:14:13.907Z,22.52
2016-08-19T08:15:12.945Z,22.97
2016-08-19T08:16:13.128Z,23.12
2016-08-19T08:17:12.946Z,23.52
2016-08-19T08:18:12.955Z,22.78
2016-08-19T08:19:12.965Z,22.36
2016-08-19T08:20:12.968Z,22.48
2016-08-19T08:21:12.929Z,22.46
2016-08-19T08:22:13.034Z,22.76
2016-08-19T08:23:12.873Z,23.06
2016-08-19T08:24:12.973Z,23.42
2016-08-19T08:25:13.019Z,23.97
2016-08-19T08:26:13.040Z,24.32
2016-08-19T08:27:13.262Z,24.85
2016-08-19T08:28:12.967Z,25.37
2016-08-19T08:29:12.975Z,25.39
2016-08-19T08:30:13.579Z,25.41
2016-08-19T08:31:13.004Z,25.49
2016-08-19T08:32:13.007Z,25.63
2016-08-19T08:33:13.161Z,25.85
2016-08-19T08:34:13.071Z,26.38
2016-08-19T08:35:12.920Z,26.75
2016-08-19T08:36:13.017Z,26.75
2016-08-19T08:37:12.998Z,26.99
2016-08-19T08:38:12.944Z,27.13
2016-08-19T08:39:13.074Z,27.49
2016-08-19T08:40:13.087Z,27.41
2016-08-19T08:41:13.076Z,26.93
2016-08-19T08:42:13.017Z,26.5
2016-08-19T08:43:13.092Z,26.01
2016-08-19T08:44:13.012Z,26.2
2016-08-19T08:45:13.042Z,26.52
2016-08-19T08:46:13.357Z,26.82
2016-08-19T08:47:13.262Z,27.15
2016-08-19T08:48:14.104Z,26.68
2016-08-19T08:49:13.576Z,26.3
2016-08-19T08:50:13.432Z,26.82
2016-08-19T08:51:13.594Z,27.34
2016-08-19T08:52:13.425Z,27.75
2016-08-19T08:53:13.439Z,27.79
2016-08-19T08:54:13.047Z,27.68
2016-08-19T08:55:13.042Z,27.76
2016-08-19T08:56:13.011Z,28.12
2016-08-19T08:57:13.169Z,28.2
2016-08-19T08:58:13.247Z,28.38
2016-08-19T08:59:13.008Z,27.26
2016-08-19T09:00:12.997Z,26.69
2016-08-19T09:01:13.000Z,25.86
2016-08-19T09:02:13.987Z,25.76
2016-08-19T09:03:13.005Z,25.69
2016-08-19T09:04:13.005Z,25.96
2016-08-19T09:05:13.301Z,25.63
2016-08-19T09:06:13.006Z,25.89
2016-08-19T09:07:13.070Z,26.06
2016-08-19T09:08:13.187Z,26.54
2016-08-19T09:09:13.149Z,26.75
2016-08-19T09:10:13.020Z,26.76
2016-08-19T09:11:13.099Z,26.26
2016-08-19T09:12:13.160Z,26.52
2016-08-19T09:13:13.033Z,26.93
2016-08-19T09:14:13.039Z,27.48
2016-08-19T09:15:13.035Z,27.49
2016-08-19T09:16:13.064Z,27.48
2016-08-19T09:17:13.246Z,27.42
2016-08-19T09:18:13.649Z,27.91
2016-08-19T09:19:13.308Z,28.21
2016-08-19T09:20:13.233Z,28.7
2016-08-19T09:21:13.342Z,29.21
2016-08-19T09:22:13.136Z,29.51
2016-08-19T09:23:13.210Z,29.6
2016-08-19T09:24:13.232Z,29.75
2016-08-19T09:25:13.088Z,30.07
2016-08-19T09:26:13.248Z,30.35
2016-08-19T09:27:13.403Z,30.48
2016-08-19T09:28:13.201Z,30.48
2016-08-19T09:29:13.195Z,30.22
2016-08-19T09:30:13.378Z,30
2016-08-19T09:31:13.147Z,29.69
2016-08-19T09:32:13.314Z,29.51
2016-08-19T09:33:13.322Z,29.84
2016-08-19T09:34:13.281Z,30.07
2016-08-19T09:35:13.218Z,30
2016-08-19T09:36:13.237Z,30.49
2016-08-19T09:37:14.949Z,30.21
2016-08-19T09:38:13.354Z,30.25
2016-08-19T09:39:13.223Z,30.54
2016-08-19T09:40:13.195Z,29.3
2016-08-19T09:41:13.163Z,27.8
2016-08-19T09:42:13.242Z,27.76
2016-08-19T09:43:13.175Z,27.66
2016-08-19T09:44:13.290Z,28.11
2016-08-19T09:45:13.305Z,29.33
2016-08-19T09:46:13.291Z,30.02
2016-08-19T09:47:13.181Z,29.26
2016-08-19T09:48:13.311Z,28.91
2016-08-19T09:49:13.283Z,28.46
2016-08-19T09:50:13.789Z,28.51
2016-08-19T09:51:13.366Z,27.53
2016-08-19T09:52:13.239Z,26.74
2016-08-19T09:53:13.562Z,27.41
2016-08-19T09:54:13.310Z,27.94
2016-08-19T09:55:13.243Z,28.48
2016-08-19T09:56:13.390Z,28.58
2016-08-19T09:57:13.909Z,28.48
2016-08-19T09:58:13.322Z,28.16
2016-08-19T09:59:14.299Z,27.98
2016-08-19T10:00:14.079Z,28.24
2016-08-19T10:01:13.343Z,27.79
2016-08-19T10:02:13.274Z,29.14
2016-08-19T10:03:13.302Z,29.73
2016-08-19T10:04:13.366Z,30
2016-08-19T10:05:13.532Z,29.4
2016-08-19T10:06:13.290Z,28.98
2016-08-19T10:07:13.343Z,28.64
2016-08-19T10:08:13.440Z,28.63
2016-08-19T10:09:13.311Z,28.73
2016-08-19T10:10:13.361Z,28.75
2016-08-19T10:11:13.347Z,28.8
2016-08-19T10:12:14.096Z,29.43
2016-08-19T10:13:13.358Z,29.43
2016-08-19T10:14:14.309Z,29.5
2016-08-19T10:15:13.337Z,29.92
2016-08-19T10:16:13.402Z,29.98
2016-08-19T10:17:13.406Z,30.54
2016-08-19T10:18:13.350Z,31.18
2016-08-19T10:19:13.444Z,31.75
2016-08-19T10:20:13.273Z,32.01
2016-08-19T10:21:13.245Z,30.7
2016-08-19T10:22:13.352Z,30.31
2016-08-19T10:23:13.298Z,29.32
2016-08-19T10:24:13.271Z,29.01
2016-08-19T10:25:13.330Z,29.05
2016-08-19T10:26:14.153Z,29.43
2016-08-19T10:27:13.453Z,30
2016-08-19T10:28:13.313Z,29.94
2016-08-19T10:29:13.355Z,29.52
2016-08-19T10:30:13.819Z,28.41
2016-08-19T10:31:13.479Z,27.81
2016-08-19T10:32:13.548Z,27.75
2016-08-19T10:33:13.714Z,27.46
2016-08-19T10:34:13.457Z,27.16
2016-08-19T10:35:13.354Z,27.71
2016-08-19T10:36:14.250Z,28.51
2016-08-19T10:37:13.429Z,27.94
2016-08-19T10:38:13.534Z,28.05
2016-08-19T10:39:14.185Z,28.45
2016-08-19T10:40:13.758Z,28.76
2016-08-19T10:41:14.081Z,28.78
2016-08-19T10:42:13.487Z,29.5
2016-08-19T10:43:13.462Z,30.35
2016-08-19T10:44:13.478Z,30.45
2016-08-19T10:45:13.402Z,28.85
2016-08-19T10:46:13.394Z,28.55
2016-08-19T10:47:13.415Z,29.05
2016-08-19T10:48:13.457Z,28.41
2016-08-19T10:49:13.493Z,27.96
2016-08-19T10:50:13.327Z,27.9
2016-08-19T10:51:13.411Z,28.42
2016-08-19T10:52:13.449Z,28.21
2016-08-19T10:53:13.725Z,28.42
2016-08-19T10:54:13.342Z,26.91
2016-08-19T10:55:13.663Z,26.99
2016-08-19T10:56:13.350Z,27.91
2016-08-19T10:57:13.410Z,28.9
2016-08-19T10:58:13.469Z,29.32
2016-08-19T10:59:13.545Z,29.54
2016-08-19T11:00:13.411Z,29.76
2016-08-19T11:01:13.613Z,29.73
2016-08-19T11:02:13.613Z,29.52
2016-08-19T11:03:13.491Z,29.1
2016-08-19T11:04:13.457Z,27.79
2016-08-19T11:05:13.697Z,26.99
2016-08-19T11:06:13.896Z,27.23
2016-08-19T11:07:13.829Z,27.96
2016-08-19T11:08:14.426Z,28.76
2016-08-19T11:09:14.107Z,29.29
2016-08-19T11:10:13.941Z,29.58
2016-08-19T11:11:14.331Z,29.63
2016-08-19T11:12:14.115Z,29.45
2016-08-19T11:13:13.961Z,29.87
2016-08-19T11:14:14.310Z,30.13
2016-08-19T11:15:14.742Z,30.6
2016-08-19T11:16:14.161Z,31.18
2016-08-19T11:17:14.702Z,31.3
2016-08-19T11:18:14.227Z,31.34
2016-08-19T11:19:13.900Z,31.26
2016-08-19T11:20:13.823Z,30.78
2016-08-19T11:21:14.037Z,30.64
2016-08-19T11:22:14.180Z,30.96
2016-08-19T11:23:13.936Z,31.04
2016-08-19T11:24:14.113Z,30.81
2016-08-19T11:25:14.238Z,30.81
2016-08-19T11:26:14.134Z,31.16
2016-08-19T11:27:14.293Z,30.79
2016-08-19T11:28:14.515Z,30.56
2016-08-19T11:29:14.400Z,30.34
2016-08-19T11:30:14.260Z,30.24
2016-08-19T11:31:15.286Z,30.32
2016-08-19T11:32:14.090Z,30.67
2016-08-19T11:33:14.107Z,30.67
2016-08-19T11:34:14.436Z,30.18
2016-08-19T11:35:14.543Z,30.13
2016-08-19T11:36:15.039Z,29.66
2016-08-19T11:37:14.163Z,29.88
2016-08-19T11:38:14.313Z,29.05
2016-08-19T11:39:14.171Z,29.48
2016-08-19T11:40:14.237Z,29.45
2016-08-19T11:41:14.360Z,29.97
2016-08-19T11:42:13.876Z,30.22
2016-08-19T11:43:14.370Z,30.14
2016-08-19T11:44:14.200Z,30.47
2016-08-19T11:45:14.674Z,30.69
2016-08-19T11:46:14.270Z,31.31
2016-08-19T11:47:14.148Z,30.85
2016-08-19T11:48:14.435Z,30.06
2016-08-19T11:49:15.668Z,29.58
2016-08-19T11:50:14.134Z,28.18
2016-08-19T11:51:14.887Z,27.69
2016-08-19T11:52:14.176Z,27.64
2016-08-19T11:53:14.426Z,28.24
2016-08-19T11:54:14.185Z,28.02
2016-08-19T11:55:14.291Z,27.55
2016-08-19T11:56:14.408Z,27.33
2016-08-19T11:57:14.217Z,27.21
2016-08-19T11:58:14.114Z,27.11
2016-08-19T11:59:13.651Z,27.62
2016-08-19T12:00:13.853Z,28.35
2016-08-19T12:01:13.660Z,28.6
2016-08-19T12:02:13.659Z,28.94
2016-08-19T12:03:13.677Z,27.68
2016-08-19T12:04:13.676Z,27.21
2016-08-19T12:05:13.704Z,28.05
2016-08-19T12:06:13.631Z,28.41
2016-08-19T12:07:13.561Z,28.48
2016-08-19T12:08:13.715Z,28.73
2016-08-19T12:09:13.737Z,28.39
2016-08-19T12:10:13.779Z,28.05
2016-08-19T12:11:14.455Z,28.33
2016-08-19T12:12:13.728Z,28.8
2016-08-19T12:13:13.726Z,28.72
2016-08-19T12:14:13.756Z,28.6
2016-08-19T12:15:13.739Z,29.24
2016-08-19T12:16:13.675Z,29.77
2016-08-19T12:17:13.628Z,29.97
2016-08-19T12:18:13.829Z,29.85
2016-08-19T12:19:13.668Z,30.04
2016-08-19T12:20:13.885Z,29.88
2016-08-19T12:21:13.751Z,30.18
2016-08-19T12:22:13.897Z,30.31
2016-08-19T12:23:13.697Z,29.61
2016-08-19T12:24:13.697Z,29.5
2016-08-19T12:25:13.710Z,29.63
2016-08-19T12:26:13.689Z,29.66
2016-08-19T12:27:13.703Z,29.89
2016-08-19T12:28:13.821Z,30.22
2016-08-19T12:29:13.866Z,30.69
2016-08-19T12:30:13.669Z,30.18
2016-08-19T12:31:13.801Z,29.82
2016-08-19T12:32:13.821Z,28.76
2016-08-19T12:33:13.765Z,29.4
2016-08-19T12:34:13.811Z,30.09
2016-08-19T12:35:13.832Z,30.03
2016-08-19T12:36:13.792Z,29.92
2016-08-19T12:37:13.677Z,29.69
2016-08-19T12:38:13.735Z,29.72
2016-08-19T12:39:13.863Z,29.24
2016-08-19T12:40:13.902Z,28.78
2016-08-19T12:41:13.948Z,28.88
2016-08-19T12:42:13.741Z,29.32
2016-08-19T12:43:13.833Z,29.66
2016-08-19T12:44:13.696Z,29.75
2016-08-19T12:45:13.869Z,29.58
2016-08-19T12:46:13.767Z,29.95
2016-08-19T12:47:13.770Z,30.6
2016-08-19T12:48:14.020Z,30.21
2016-08-19T12:49:13.712Z,30.16
2016-08-19T12:50:13.754Z,29.98
2016-08-19T12:51:13.898Z,29.01
2016-08-19T12:52:13.818Z,28.54
2016-08-19T12:53:13.852Z,28.17
2016-08-19T12:54:13.789Z,28.24
2016-08-19T12:55:14.010Z,29.13